Time;durP1;ratioP1;P1;durP2;ratioP2;P2;SDS_P1;SDS_P2;PMS_P1;PMS_P2;Temp;Humidity;BMP_temperature;BMP_pressure;BME280_temperature;BME280_humidity;BME280_pressure;Samples;Min_cycle;Max_cycle;Signal;HPM_P1;HPM_P2
2023/03/04 00:02:01;;;;;;;95.68;62.67;;;205.20;2252.80;;;;;;4997059;28;20022;-57
2023/03/04 00:04:26;;;;;;;59.35;40.88;;;205.30;2252.80;;;;;;4996983;28;20026;-61
2023/03/04 00:06:52;;;;;;;92.28;58.05;;;205.40;2252.80;;;;;;4996887;28;20034;-62
2023/03/04 00:09:18;;;;;;;69.63;44.25;;;;;;;;;;4996517;28;20118;-57
2023/03/04 00:11:44;;;;;;;45.85;31.02;;;;;;;;;;4996794;28;20041;-57
2023/03/04 00:14:10;;;;;;;62.63;43.22;;;;;;;;;;4996640;28;20032;-60
2023/03/04 00:16:36;;;;;;;60.00;39.30;;;;;;;;;;4996752;28;20026;-61
2023/03/04 00:19:02;;;;;;;46.88;30.48;;;;;;;;;;4996832;28;20030;-61
2023/03/04 00:21:28;;;;;;;53.47;32.75;;;;;;;;;;4996699;28;20035;-56
2023/03/04 00:23:54;;;;;;;46.55;30.13;;;;;;;;;;4996299;28;20023;-57
2023/03/04 00:29:24;;;;;;;53.47;33.65;;;205.50;2252.80;;;;;;4996633;28;20033;-57
2023/03/04 00:31:49;;;;;;;60.92;38.60;;;205.40;2252.80;;;;;;4996267;28;20023;-60
2023/03/04 00:34:15;;;;;;;48.88;31.42;;;205.40;2252.80;;;;;;4996613;28;20109;-58
2023/03/04 00:36:43;;;;;;;39.85;27.35;;;205.50;2252.80;;;;;;4996799;28;20029;-61
2023/03/04 00:39:10;;;;;;;37.35;27.27;;;205.70;2252.80;;;;;;4996047;28;20038;-62
2023/03/04 00:45:11;;;;;;;;;;;230.40;2252.80;;;;;;4996333;28;20571;-55
2023/03/04 00:47:36;;;;;;;45.17;29.77;;;205.70;2252.80;;;;;;4996323;28;19909;-60
2023/03/04 00:50:03;;;;;;;47.42;32.08;;;205.50;2252.80;;;;;;4994858;28;20376;-59
2023/03/04 00:52:29;;;;;;;43.75;29.45;;;205.50;2252.80;;;;;;4992955;28;20030;-56
2023/03/04 00:54:54;;;;;;;48.05;29.13;;;205.50;2252.80;;;;;;4991371;28;20439;-56
2023/03/04 00:57:20;;;;;;;50.65;33.30;;;205.50;2252.80;;;;;;4992550;28;20114;-56
2023/03/04 00:59:46;;;;;;;49.05;32.22;;;205.60;2252.80;;;;;;4992437;28;20026;-55
2023/03/04 01:02:11;;;;;;;40.65;27.73;;;230.40;2252.80;;;;;;4993051;28;20040;-55
2023/03/04 01:04:37;;;;;;;49.22;33.72;;;205.70;2252.80;;;;;;4991999;28;20015;-60
2023/03/04 01:07:03;;;;;;;56.28;36.03;;;205.70;2252.80;;;;;;4963852;28;20489;-56
2023/03/04 01:09:29;;;;;;;70.45;43.95;;;205.70;2252.80;;;;;;4972683;28;20019;-56
2023/03/04 01:11:55;;;;;;;77.78;51.15;;;205.70;2252.80;;;;;;4972532;28;20545;-56
2023/03/04 01:14:21;;;;;;;55.90;38.63;;;205.60;2252.80;;;;;;4972972;28;20020;-57
2023/03/04 01:16:47;;;;;;;61.22;44.28;;;205.60;2252.80;;;;;;4972846;28;20035;-60
2023/03/04 01:19:13;;;;;;;46.67;29.27;;;205.70;2252.80;;;;;;4972835;28;20485;-57
2023/03/04 01:21:39;;;;;;;39.72;27.52;;;205.70;2252.80;;;;;;4972871;28;20109;-57
2023/03/04 01:24:05;;;;;;;40.80;26.95;;;205.60;2252.80;;;;;;4972344;28;20019;-57
2023/03/04 01:26:30;;;;;;;42.33;29.40;;;205.60;2252.80;;;;;;4972679;28;20126;-56
2023/03/04 01:28:56;;;;;;;51.60;32.88;;;205.60;2252.80;;;;;;4972289;28;20023;-56
2023/03/04 01:31:22;;;;;;;44.20;29.23;;;205.70;2252.80;;;;;;4973065;28;20077;-57
2023/03/04 01:33:47;;;;;;;72.80;47.15;;;205.60;2252.80;;;;;;4972134;28;20377;-55
2023/03/04 01:36:13;;;;;;;64.22;40.75;;;205.50;2252.80;;;;;;4972348;28;20058;-57
2023/03/04 01:38:39;;;;;;;130.07;87.10;;;205.60;2252.80;;;;;;4971351;28;20030;-56
2023/03/04 01:41:06;;;;;;;49.70;32.90;;;205.60;2252.80;;;;;;4972393;28;20034;-56
2023/03/04 01:43:34;;;;;;;53.55;35.70;;;205.50;2252.80;;;;;;4972186;28;20031;-57
2023/03/04 01:46:00;;;;;;;46.97;30.52;;;205.50;2252.80;;;;;;4971847;28;20110;-57
2023/03/04 01:48:30;;;;;;;38.75;27.92;;;205.70;2252.80;;;;;;4972103;28;20037;-56
2023/03/04 01:50:58;;;;;;;37.38;23.60;;;205.40;2252.80;;;;;;4972000;28;20462;-57
2023/03/04 01:53:26;;;;;;;62.67;41.63;;;205.20;2252.80;;;;;;4971775;28;20027;-56
2023/03/04 01:55:55;;;;;;;68.90;45.25;;;205.30;2252.80;;;;;;4972348;28;20049;-60
2023/03/04 01:58:22;;;;;;;60.15;40.53;;;205.50;2252.80;;;;;;4972192;28;20034;-55
2023/03/04 02:00:48;;;;;;;75.38;47.83;;;205.60;2252.80;;;;;;4959266;28;20106;-61
2023/03/04 02:03:18;;;;;;;46.92;31.75;;;205.60;2252.80;;;;;;4959153;28;20069;-57
2023/03/04 02:05:48;;;;;;;46.33;30.45;;;205.50;2252.80;;;;;;4972061;28;20037;-56
2023/03/04 02:08:15;;;;;;;52.47;36.17;;;205.40;2252.80;;;;;;4971618;28;20078;-55
2023/03/04 02:10:42;;;;;;;56.40;38.30;;;205.50;2252.80;;;;;;4971782;28;20035;-56
2023/03/04 02:13:09;;;;;;;48.38;30.92;;;205.60;2252.80;;;;;;4972149;28;20041;-60
2023/03/04 02:15:34;;;;;;;39.28;28.25;;;205.60;2252.80;;;;;;4971614;28;20038;-55
2023/03/04 02:18:01;;;;;;;41.72;26.42;;;205.50;2252.80;;;;;;4971578;28;20027;-56
2023/03/04 02:20:40;;;;;;;30.67;22.55;;;205.60;2252.80;;;;;;4971499;28;20023;-55
2023/03/04 02:23:14;;;;;;;30.20;21.08;;;205.60;2252.80;;;;;;4971557;28;20026;-56
2023/03/04 02:25:49;;;;;;;44.08;31.58;;;205.50;2252.80;;;;;;4971252;28;20062;-56
2023/03/04 02:28:15;;;;;;;36.30;23.98;;;205.60;2252.80;;;;;;4969942;28;20393;-56
2023/03/04 02:30:41;;;;;;;29.88;22.00;;;230.40;2252.80;;;;;;4971469;28;20027;-55
2023/03/04 02:33:14;;;;;;;32.75;20.63;;;205.70;2252.80;;;;;;4971407;28;20106;-55
2023/03/04 02:35:40;;;;;;;35.10;22.48;;;205.60;2252.80;;;;;;4971706;28;20434;-56
2023/03/04 02:38:06;;;;;;;36.45;25.67;;;;;;;;;;4970852;28;20061;-56
2023/03/04 02:40:34;;;;;;;38.20;27.48;;;205.40;2252.80;;;;;;4971002;28;20059;-56
2023/03/04 02:43:00;;;;;;;37.17;24.67;;;205.30;2252.80;;;;;;4971254;28;20027;-56
2023/03/04 02:45:37;;;;;;;32.97;21.40;;;205.00;2252.80;;;;;;4971242;28;20038;-57
2023/03/04 02:48:04;;;;;;;27.52;20.30;;;205.00;2252.80;;;;;;4970840;28;20031;-56
2023/03/04 02:50:35;;;;;;;36.03;23.13;;;205.20;2252.80;;;;;;4971333;28;20042;-60
2023/03/04 02:53:00;;;;;;;162.93;89.28;;;205.00;2252.80;;;;;;4971235;28;20492;-56
2023/03/04 02:55:27;;;;;;;54.03;33.97;;;205.30;2252.80;;;;;;4970905;28;20035;-56
2023/03/04 02:57:53;;;;;;;63.28;38.40;;;205.40;2252.80;;;;;;4971387;28;20019;-56
2023/03/04 03:00:18;;;;;;;61.60;42.00;;;205.40;2252.80;;;;;;4971352;28;20089;-57
2023/03/04 03:02:44;;;;;;;52.47;33.92;;;205.40;2252.80;;;;;;4969188;28;20540;-57
2023/03/04 03:05:11;;;;;;;60.08;39.80;;;205.40;2252.80;;;;;;4971116;28;20027;-56
2023/03/04 03:07:37;;;;;;;33.13;24.35;;;205.30;2252.80;;;;;;4970734;28;20026;-56
2023/03/04 03:10:03;;;;;;;34.80;23.58;;;205.00;2252.80;;;;;;4970838;28;20420;-56
2023/03/04 03:12:29;;;;;;;59.63;37.80;;;204.90;2252.80;;;;;;4970726;28;20039;-56
2023/03/04 03:14:55;;;;;;;34.95;23.08;;;204.90;2252.80;;;;;;4971039;28;20492;-57
2023/03/04 03:17:20;;;;;;;39.47;25.77;;;204.90;2252.80;;;;;;4971311;28;20022;-56
2023/03/04 03:19:46;;;;;;;37.53;22.15;;;204.80;2252.80;;;;;;4970840;28;20377;-56
2023/03/04 03:22:12;;;;;;;33.78;21.17;;;204.80;2252.80;;;;;;4971166;28;20031;-55
2023/03/04 03:24:37;;;;;;;42.25;28.00;;;204.80;2252.80;;;;;;4970568;28;20019;-60
2023/03/04 03:27:03;;;;;;;41.17;29.73;;;205.00;2252.80;;;;;;4970914;28;20022;-55
2023/03/04 03:29:29;;;;;;;39.00;27.17;;;205.00;2252.80;;;;;;4971061;28;20054;-56
2023/03/04 03:31:55;;;;;;;32.95;20.55;;;205.20;2252.80;;;;;;4970748;28;20458;-61
2023/03/04 03:34:22;;;;;;;33.13;21.10;;;205.20;2252.80;;;;;;4971074;28;20027;-56
2023/03/04 03:36:47;;;;;;;32.28;20.17;;;205.10;2252.80;;;;;;4970560;28;20025;-56
2023/03/04 03:39:14;;;;;;;28.48;19.90;;;205.20;2252.80;;;;;;4970655;28;20047;-55
2023/03/04 03:41:41;;;;;;;29.55;19.15;;;205.20;2252.80;;;;;;4970916;28;20042;-56
2023/03/04 03:44:06;;;;;;;35.95;22.70;;;205.20;2252.80;;;;;;4970689;28;20114;-56
2023/03/04 03:46:34;;;;;;;35.33;22.52;;;204.90;2252.80;;;;;;4970441;28;20109;-56
2023/03/04 03:49:00;;;;;;;35.60;22.75;;;204.90;2252.80;;;;;;4970905;28;20027;-56
2023/03/04 03:51:26;;;;;;;39.08;23.63;;;204.90;2252.80;;;;;;4970683;28;20103;-56
2023/03/04 03:53:51;;;;;;;37.63;24.90;;;204.90;2252.80;;;;;;4970604;28;20421;-54
2023/03/04 03:56:17;;;;;;;47.83;29.52;;;204.90;2252.80;;;;;;4970301;28;20041;-56
2023/03/04 03:58:43;;;;;;;43.20;27.38;;;205.00;2252.80;;;;;;4970730;28;20082;-61
2023/03/04 04:01:08;;;;;;;48.75;27.95;;;204.80;2252.80;;;;;;4970398;28;20054;-56
2023/03/04 04:03:34;;;;;;;42.42;25.45;;;204.90;2252.80;;;;;;4973259;28;20027;-56
2023/03/04 04:06:00;;;;;;;45.08;28.40;;;205.00;2252.80;;;;;;4974032;28;20039;-55
2023/03/04 04:08:26;;;;;;;43.55;28.40;;;205.00;2252.80;;;;;;4973673;28;20030;-56
2023/03/04 04:10:52;;;;;;;46.42;28.90;;;205.10;2252.80;;;;;;4974134;28;20035;-56
2023/03/04 04:13:17;;;;;;;46.90;28.98;;;204.90;2252.80;;;;;;4973842;28;20027;-55
2023/03/04 04:15:43;;;;;;;46.28;30.27;;;205.10;2252.80;;;;;;4974308;28;20023;-55
2023/03/04 04:18:09;;;;;;;45.63;28.15;;;205.10;2252.80;;;;;;4974338;28;20516;-55
2023/03/04 04:20:35;;;;;;;56.00;32.78;;;205.10;2252.80;;;;;;4973630;28;20031;-56
2023/03/04 04:23:02;;;;;;;47.75;28.88;;;204.90;2252.80;;;;;;4974166;28;20109;-60
2023/03/04 04:25:27;;;;;;;49.25;32.78;;;204.80;2252.80;;;;;;4973792;28;20030;-56
2023/03/04 04:27:53;;;;;;;45.53;29.35;;;204.90;2252.80;;;;;;4974162;28;20038;-55
2023/03/04 04:30:19;;;;;;;44.60;27.35;;;180.10;2252.80;;;;;;4973912;28;20470;-56
2023/03/04 04:32:45;;;;;;;45.40;27.75;;;204.90;2252.80;;;;;;4973539;28;20395;-56
2023/03/04 04:35:11;;;;;;;50.70;30.17;;;;;;;;;;4973964;28;20034;-56
2023/03/04 04:37:37;;;;;;;46.47;28.85;;;;;;;;;;4973546;28;20030;-56
2023/03/04 04:40:03;;;;;;;51.88;31.70;;;;;;;;;;4972795;28;20057;-55
2023/03/04 04:42:29;;;;;;;54.97;33.40;;;;;;;;;;4973809;28;20400;-56
2023/03/04 04:44:56;;;;;;;93.68;69.72;;;205.20;2252.80;;;;;;4973497;28;20441;-58
2023/03/04 04:47:22;;;;;;;50.55;31.65;;;205.10;2252.80;;;;;;4973999;28;20373;-55
2023/03/04 04:49:47;;;;;;;42.03;32.58;;;205.10;2252.80;;;;;;4973003;28;20015;-56
2023/03/04 04:52:13;;;;;;;39.92;25.42;;;205.10;2252.80;;;;;;4973432;28;20031;-56
2023/03/04 04:54:39;;;;;;;46.40;28.80;;;205.10;2252.80;;;;;;4973312;28;20513;-57
2023/03/04 04:57:04;;;;;;;39.35;25.90;;;205.20;2252.80;;;;;;4972999;28;20031;-55
2023/03/04 04:59:30;;;;;;;38.65;26.67;;;205.10;2252.80;;;;;;4973386;28;20031;-55
2023/03/04 05:01:56;;;;;;;42.70;25.20;;;205.00;2252.80;;;;;;4973248;28;20389;-56
2023/03/04 05:04:22;;;;;;;39.58;24.75;;;205.00;2252.80;;;;;;4972988;28;20062;-60
2023/03/04 05:06:47;;;;;;;37.83;27.30;;;205.00;2252.80;;;;;;4973063;28;20043;-56
2023/03/04 05:09:13;;;;;;;43.75;28.00;;;205.10;2252.80;;;;;;4972885;28;20031;-56
2023/03/04 05:11:39;;;;;;;43.42;25.45;;;205.10;2252.80;;;;;;4973252;28;20413;-56
2023/03/04 05:14:04;;;;;;;39.70;28.00;;;205.20;2252.80;;;;;;4971639;28;20026;-56
2023/03/04 05:16:30;;;;;;;47.17;27.63;;;205.20;2252.80;;;;;;4973245;28;20035;-56
2023/03/04 05:18:56;;;;;;;48.88;29.65;;;205.20;2252.80;;;;;;4973034;28;20022;-56
2023/03/04 05:21:22;;;;;;;45.40;28.17;;;;;;;;;;4973049;28;20030;-60
2023/03/04 05:23:48;;;;;;;42.83;28.17;;;;;;;;;;4972467;28;20022;-56
2023/03/04 05:26:16;;;;;;;80.57;43.15;;;205.40;2252.80;;;;;;4972503;28;20497;-56
2023/03/04 05:28:42;;;;;;;241.05;128.48;;;205.50;2252.80;;;;;;4972685;28;20480;-56
2023/03/04 05:31:08;;;;;;;129.57;69.85;;;205.40;2252.80;;;;;;4972787;28;20034;-61
2023/03/04 05:33:34;;;;;;;39.90;26.83;;;205.40;2252.80;;;;;;4959812;28;20066;-57
2023/03/04 05:36:00;;;;;;;48.40;26.90;;;205.20;2252.80;;;;;;4972885;28;20481;-56
2023/03/04 05:38:26;;;;;;;134.43;71.18;;;205.20;2252.80;;;;;;4972052;28;20378;-56
2023/03/04 05:40:59;;;;;;;106.40;57.90;;;205.20;2252.80;;;;;;4972701;28;20046;-58
2023/03/04 05:43:26;;;;;;;178.45;97.30;;;205.20;2252.80;;;;;;4972108;28;20027;-57
2023/03/04 05:45:53;;;;;;;100.32;55.33;;;205.30;2252.80;;;;;;4972771;28;20046;-56
2023/03/04 05:48:19;;;;;;;70.28;42.08;;;205.40;2252.80;;;;;;4971909;28;20101;-56
2023/03/04 05:50:45;;;;;;;52.60;34.25;;;205.30;2252.80;;;;;;4972367;28;20086;-56
2023/03/04 05:53:11;;;;;;;56.05;35.33;;;205.20;2252.80;;;;;;4972202;28;20026;-62
2023/03/04 05:55:37;;;;;;;45.50;30.48;;;205.20;2252.80;;;;;;4972142;28;20089;-56
2023/03/04 05:58:02;;;;;;;103.85;66.97;;;205.20;2252.80;;;;;;4972246;28;20038;-56
2023/03/04 06:00:28;;;;;;;68.28;42.88;;;205.40;2252.80;;;;;;4972196;28;20432;-56
2023/03/04 06:02:54;;;;;;;76.18;46.88;;;205.50;2252.80;;;;;;4972002;28;20018;-57
2023/03/04 06:05:20;;;;;;;218.70;147.02;;;205.40;2252.80;;;;;;4971704;28;20031;-56
2023/03/04 06:07:46;;;;;;;87.05;59.55;;;205.50;2252.80;;;;;;4970385;28;20049;-56
2023/03/04 06:10:15;;;;;;;52.78;30.73;;;205.50;2252.80;;;;;;4971787;28;20034;-56
2023/03/04 06:12:40;;;;;;;51.10;34.83;;;205.40;2252.80;;;;;;4971728;28;20371;-56
2023/03/04 06:15:09;;;;;;;234.50;143.82;;;205.30;2252.80;;;;;;4971602;28;20068;-55
2023/03/04 06:17:35;;;;;;;84.93;54.40;;;205.20;2252.80;;;;;;4971643;28;20023;-56
2023/03/04 06:20:01;;;;;;;91.40;61.70;;;205.20;2252.80;;;;;;4972037;28;20449;-56
2023/03/04 06:22:26;;;;;;;57.47;38.13;;;205.30;2252.80;;;;;;4971559;28;20043;-56
2023/03/04 06:24:52;;;;;;;55.05;33.28;;;205.30;2252.80;;;;;;4971605;28;20385;-56
2023/03/04 06:27:18;;;;;;;56.28;35.50;;;205.30;2252.80;;;;;;4971336;28;20077;-60
2023/03/04 06:29:43;;;;;;;55.58;34.97;;;205.60;2252.80;;;;;;4971275;28;20031;-56
2023/03/04 06:32:09;;;;;;;141.35;109.68;;;205.50;2252.80;;;;;;4971219;28;20031;-55
2023/03/04 06:34:35;;;;;;;85.72;61.95;;;205.60;2252.80;;;;;;4971498;28;20027;-56
2023/03/04 06:37:00;;;;;;;68.80;53.53;;;205.60;2252.80;;;;;;4971208;28;20358;-56
2023/03/04 06:39:26;;;;;;;64.32;45.70;;;230.40;2252.80;;;;;;4970898;28;20390;-56
2023/03/04 06:41:52;;;;;;;61.88;44.63;;;205.70;2252.80;;;;;;4970797;28;20393;-61
2023/03/04 06:44:18;;;;;;;74.72;57.13;;;230.40;2252.80;;;;;;4971307;28;20023;-60
2023/03/04 06:46:43;;;;;;;68.82;47.50;;;230.50;2252.80;;;;;;4970819;28;20038;-60
2023/03/04 06:49:09;;;;;;;87.63;49.42;;;230.50;2252.80;;;;;;4971160;28;20030;-67
2023/03/04 06:51:35;;;;;;;95.93;72.47;;;230.60;2252.80;;;;;;4970889;28;20022;-61
2023/03/04 06:54:01;;;;;;;79.22;52.28;;;;;;;;;;4971022;28;20030;-60
2023/03/04 06:56:27;;;;;;;81.15;55.03;;;;;;;;;;4971204;28;20050;-60
2023/03/04 06:58:53;;;;;;;59.95;38.88;;;;;;;;;;4971297;28;20073;-64
2023/03/04 07:01:21;;;;;;;45.63;30.17;;;;;;;;;;4970925;28;20031;-60
2023/03/04 07:03:48;;;;;;;43.63;29.73;;;;;;;;;;4970946;28;20042;-65
2023/03/04 07:06:15;;;;;;;43.10;32.45;;;;;;;;;;4957940;28;20038;-61
2023/03/04 07:08:42;;;;;;;50.38;37.80;;;;;;;;;;4970726;28;20494;-61
2023/03/04 07:11:08;;;;;;;44.40;29.13;;;;;;;;;;4970853;28;20034;-61
2023/03/04 07:13:37;;;;;;;54.88;36.22;;;;;;;;;;4970758;28;20050;-60
2023/03/04 07:16:03;;;;;;;56.42;41.70;;;;;;;;;;4971127;28;20034;-65
2023/03/04 07:18:29;;;;;;;60.42;46.40;;;;;;;;;;4970709;28;20023;-64
2023/03/04 07:20:55;;;;;;;49.92;32.78;;;;;;;;;;4971001;28;20462;-61
2023/03/04 07:23:21;;;;;;;46.95;31.92;;;;;;;;;;4970731;28;20096;-59
2023/03/04 07:25:48;;;;;;;44.97;31.00;;;230.80;2252.80;;;;;;4970609;28;20029;-65
2023/03/04 07:28:14;;;;;;;79.80;55.80;;;230.70;2252.80;;;;;;4970505;28;20082;-60
2023/03/04 07:30:40;;;;;;;66.65;41.22;;;230.70;2252.80;;;;;;4970748;28;20023;-60
2023/03/04 07:33:06;;;;;;;76.72;50.90;;;;;;;;;;4970556;28;20441;-65
2023/03/04 07:35:32;;;;;;;50.00;29.40;;;;;;;;;;4970905;28;20023;-64
2023/03/04 07:37:58;;;;;;;36.92;26.00;;;;;;;;;;4972304;28;20023;-60
2023/03/04 07:40:24;;;;;;;35.67;24.50;;;;;;;;;;4974306;28;20063;-60
2023/03/04 07:42:52;;;;;;;45.75;31.65;;;231.10;2252.80;;;;;;4974414;28;20098;-60
2023/03/04 07:45:18;;;;;;;43.38;29.52;;;231.10;2252.80;;;;;;4974524;28;20042;-62
2023/03/04 07:47:44;;;;;;;43.55;28.52;;;230.90;2252.80;;;;;;4974333;28;20109;-60
2023/03/04 07:50:11;;;;;;;38.17;27.05;;;230.90;2252.80;;;;;;4974282;28;20063;-60
2023/03/04 07:52:45;;;;;;;45.90;30.48;;;231.10;2252.80;;;;;;4974416;28;20027;-60
2023/03/04 07:55:12;;;;;;;40.45;26.13;;;231.10;2252.80;;;;;;4962181;28;20035;-60
2023/03/04 07:57:39;;;;;;;43.28;29.80;;;231.20;2252.80;;;;;;4974172;28;20038;-65
2023/03/04 08:00:05;;;;;;;40.33;27.85;;;256.00;2252.80;;;;;;4973937;28;20030;-64
2023/03/04 08:02:31;;;;;;;44.88;30.80;;;231.30;2252.80;;;;;;4974003;28;20031;-64
2023/03/04 08:04:57;;;;;;;45.67;28.35;;;231.30;2252.80;;;;;;4974055;28;20411;-60
2023/03/04 08:07:22;;;;;;;45.97;31.33;;;256.10;2252.80;;;;;;4974038;28;20041;-59
2023/03/04 08:09:48;;;;;;;43.95;28.88;;;256.00;2252.80;;;;;;4974071;28;20188;-60
2023/03/04 08:12:14;;;;;;;39.00;27.95;;;256.00;2252.80;;;;;;4974045;28;20027;-60
2023/03/04 08:14:40;;;;;;;39.28;28.70;;;256.10;2252.80;;;;;;4973846;28;20022;-60
2023/03/04 08:17:06;;;;;;;49.05;26.73;;;256.20;2252.80;;;;;;4973881;28;20018;-62
2023/03/04 08:19:31;;;;;;;33.50;24.63;;;256.20;2252.80;;;;;;4973952;28;20536;-60
2023/03/04 08:21:57;;;;;;;40.50;25.50;;;256.30;2252.80;;;;;;4973622;28;20109;-60
2023/03/04 08:24:23;;;;;;;45.85;32.80;;;256.40;2252.80;;;;;;4974210;28;20026;-61
2023/03/04 08:26:49;;;;;;;62.78;44.97;;;256.60;2252.80;;;;;;4973679;28;20536;-60
2023/03/04 08:29:21;;;;;;;44.67;31.15;;;256.60;2252.80;;;;;;4973679;28;20366;-63
2023/03/04 08:31:48;;;;;;;41.25;27.35;;;256.70;2252.80;;;;;;4973265;28;20548;-60
2023/03/04 08:34:15;;;;;;;45.05;33.42;;;256.70;2252.80;;;;;;4973641;28;20529;-60
2023/03/04 08:36:44;;;;;;;36.63;24.73;;;256.80;2252.80;;;;;;4973475;28;20054;-70
2023/03/04 08:39:12;;;;;;;37.03;24.17;;;256.80;2252.80;;;;;;4973318;28;20102;-61
2023/03/04 08:41:38;;;;;;;35.78;23.15;;;256.50;2252.80;;;;;;4973455;28;20089;-61
2023/03/04 08:44:07;;;;;;;32.85;22.50;;;256.80;2252.80;;;;;;4973066;28;20374;-61
2023/03/04 08:46:32;;;;;;;32.35;20.65;;;256.90;2252.80;;;;;;4973175;28;20031;-61
2023/03/04 08:48:59;;;;;;;32.47;22.55;;;256.90;2252.80;;;;;;4971176;28;20043;-60
2023/03/04 08:51:24;;;;;;;32.88;22.67;;;256.90;2252.80;;;;;;4972611;28;20031;-60
2023/03/04 08:53:50;;;;;;;34.70;21.92;;;281.70;2278.40;;;;;;4973101;28;20046;-60
2023/03/04 08:56:16;;;;;;;32.58;19.90;;;281.80;2278.40;;;;;;4973283;28;20027;-62
2023/03/04 08:58:42;;;;;;;34.10;22.20;;;281.80;2278.40;;;;;;4973604;28;20396;-61
2023/03/04 09:01:10;;;;;;;34.85;21.60;;;281.80;2278.40;;;;;;4972771;28;20038;-63
2023/03/04 09:03:36;;;;;;;31.55;21.58;;;281.80;2278.40;;;;;;4972776;28;20038;-59
2023/03/04 09:06:03;;;;;;;32.50;21.52;;;282.00;2278.40;;;;;;4973253;28;20458;-60
2023/03/04 09:08:29;;;;;;;32.00;21.27;;;281.90;2278.40;;;;;;4972029;28;20119;-60
2023/03/04 09:10:55;;;;;;;34.85;21.90;;;282.00;2278.40;;;;;;4968090;28;20110;-61
2023/03/04 09:13:25;;;;;;;33.70;21.67;;;282.20;2278.40;;;;;;4970423;28;20106;-60
2023/03/04 09:15:51;;;;;;;27.67;19.88;;;282.40;2278.40;;;;;;4970948;28;20489;-60
2023/03/04 09:18:19;;;;;;;32.67;20.92;;;282.40;2278.40;;;;;;4970748;28;20041;-60
2023/03/04 09:20:46;;;;;;;28.45;17.70;;;282.30;2278.40;;;;;;4970514;28;20504;-61
2023/03/04 09:23:12;;;;;;;33.15;21.33;;;282.40;2278.40;;;;;;4970471;28;20122;-60
2023/03/04 09:25:38;;;;;;;28.27;21.40;;;282.40;2278.40;;;;;;4969265;28;20062;-60
2023/03/04 09:28:05;;;;;;;24.42;18.65;;;307.30;2304.00;;;;;;4970570;28;20027;-59
2023/03/04 09:30:31;;;;;;;29.80;20.13;;;282.50;2278.40;;;;;;4970687;28;20026;-60
2023/03/04 09:32:57;;;;;;;28.48;19.95;;;307.50;2304.00;;;;;;4970263;28;20532;-60
2023/03/04 09:35:22;;;;;;;25.08;17.70;;;307.30;2304.00;;;;;;4970809;28;20046;-61
2023/03/04 09:37:49;;;;;;;24.90;17.38;;;307.30;2304.00;;;;;;4970930;28;20049;-60
2023/03/04 09:40:32;;;;;;;30.52;19.23;;;307.40;2304.00;;;;;;4970256;28;20156;-60
2023/03/04 09:43:04;;;;;;;29.90;22.13;;;307.50;2304.00;;;;;;4964175;28;20370;-59
2023/03/04 09:46:05;;;;;;;25.90;19.02;;;307.60;2304.00;;;;;;4968442;28;20066;-60
2023/03/04 09:48:43;;;;;;;37.50;28.52;;;307.80;2304.00;;;;;;4940183;28;20058;-60
2023/03/04 09:51:30;;;;;;;62.25;47.40;;;307.80;2304.00;;;;;;4970066;28;20035;-61
2023/03/04 09:54:07;;;;;;;48.67;33.50;;;307.80;2304.00;;;;;;4970127;28;20117;-59
2023/03/04 09:56:40;;;;;;;46.90;33.03;;;307.90;2304.00;;;;;;4970530;28;20023;-59
2023/03/04 09:59:28;;;;;;;45.05;37.28;;;308.10;2304.00;;;;;;4970091;28;20026;-61
2023/03/04 10:02:02;;;;;;;26.63;19.55;;;332.90;2329.60;;;;;;4964755;28;20119;-61
2023/03/04 10:04:39;;;;;;;25.63;20.70;;;333.00;2329.60;;;;;;4969629;28;20034;-59
2023/03/04 10:07:14;;;;;;;26.10;17.55;;;333.10;2329.60;;;;;;4969993;28;20043;-60
2023/03/04 10:09:46;;;;;;;21.20;15.55;;;333.10;2329.60;;;;;;4969743;28;20500;-61
2023/03/04 10:12:20;;;;;;;29.50;22.80;;;333.00;2329.60;;;;;;4969964;28;20050;-60
2023/03/04 10:14:57;;;;;;;35.67;22.40;;;332.90;2329.60;;;;;;4961100;28;20041;-60
2023/03/04 10:17:41;;;;;;;82.43;64.85;;;333.10;2329.60;;;;;;4969699;28;20093;-60
2023/03/04 10:20:20;;;;;;;25.08;21.23;;;308.10;2304.00;;;;;;4962903;28;20028;-60
2023/03/04 10:22:48;;;;;;;23.17;17.85;;;333.20;2329.60;;;;;;4961562;28;20071;-60
2023/03/04 10:25:24;;;;;;;27.73;19.08;;;333.40;2329.60;;;;;;4969454;28;20105;-60
2023/03/04 10:28:01;;;;;;;26.40;19.88;;;333.40;2329.60;;;;;;4969410;28;20130;-60
2023/03/04 10:30:39;;;;;;;28.38;22.08;;;333.50;2329.60;;;;;;4968726;28;20059;-60
2023/03/04 10:33:34;;;;;;;34.47;26.85;;;333.60;2329.60;;;;;;4968344;28;20035;-60
2023/03/04 10:36:14;;;;;;;25.25;18.15;;;333.60;2329.60;;;;;;4964769;28;20078;-59
2023/03/04 10:38:41;;;;;;;26.63;18.00;;;333.20;2329.60;;;;;;4968276;28;20490;-61
2023/03/04 10:41:20;;;;;;;29.55;23.08;;;333.50;2329.60;;;;;;4968993;28;20397;-59
2023/03/04 10:44:00;;;;;;;26.63;20.13;;;358.40;2329.60;;;;;;4969091;28;20694;-59
2023/03/04 10:46:26;;;;;;;29.75;22.20;;;358.50;2329.60;;;;;;4968775;28;20038;-60
2023/03/04 10:48:53;;;;;;;38.45;28.70;;;358.80;2329.60;;;;;;4969520;28;20031;-59
2023/03/04 10:51:21;;;;;;;44.95;28.80;;;333.40;2329.60;;;;;;4969149;28;20210;-60
2023/03/04 10:53:51;;;;;;;34.47;24.45;;;333.00;2329.60;;;;;;4968879;28;20478;-61
2023/03/04 10:56:38;;;;;;;40.95;29.70;;;333.30;2329.60;;;;;;4969053;28;20049;-60
2023/03/04 10:59:38;;;;;;;29.30;23.38;;;333.40;2329.60;;;;;;4963361;28;20027;-60
2023/03/04 11:02:12;;;;;;;38.97;30.42;;;333.20;2329.60;;;;;;4965775;28;20178;-60
2023/03/04 11:04:38;;;;;;;61.15;44.17;;;333.70;2329.60;;;;;;4969178;28;20027;-59
2023/03/04 11:07:10;;;;;;;39.00;27.38;;;333.60;2329.60;;;;;;4968881;28;20038;-59
2023/03/04 11:09:36;;;;;;;38.10;26.05;;;358.50;2329.60;;;;;;4968819;28;20369;-60
2023/03/04 11:12:09;;;;;;;46.67;30.05;;;358.80;2329.60;;;;;;4969306;28;20385;-59
2023/03/04 11:14:44;;;;;;;38.60;26.38;;;359.10;2329.60;;;;;;4967447;28;20027;-59
2023/03/04 11:17:28;;;;;;;39.75;30.42;;;358.80;2329.60;;;;;;4969183;28;20131;-59
2023/03/04 11:20:01;;;;;;;48.65;33.13;;;333.60;2329.60;;;;;;4968784;28;20023;-60
2023/03/04 11:22:28;;;;;;;42.92;31.45;;;332.90;2329.60;;;;;;4968458;28;20053;-60
2023/03/04 11:24:58;;;;;;;57.67;36.72;;;333.50;2329.60;;;;;;4965292;28;20023;-61
2023/03/04 11:27:33;;;;;;;82.88;61.88;;;333.70;2329.60;;;;;;4968887;28;20027;-60
2023/03/04 11:30:27;;;;;;;47.50;31.95;;;358.80;2329.60;;;;;;4968945;28;20035;-59
2023/03/04 11:33:00;;;;;;;37.25;25.20;;;359.00;2329.60;;;;;;4969014;28;20034;-60
2023/03/04 11:35:33;;;;;;;42.35;23.77;;;358.70;2329.60;;;;;;4966115;28;20121;-59
2023/03/04 11:38:23;;;;;;;34.47;24.20;;;359.10;2304.00;;;;;;4968835;28;20032;-60
2023/03/04 11:40:53;;;;;;;59.53;35.20;;;359.30;2201.60;;;;;;4968369;28;20521;-59
2023/03/04 11:43:37;;;;;;;43.85;30.08;;;384.00;2252.80;;;;;;4966800;28;20379;-56
2023/03/04 11:46:10;;;;;;;45.03;28.83;;;384.10;2252.80;;;;;;4968663;28;20086;-56
2023/03/04 11:48:44;;;;;;;133.98;95.03;;;358.90;2278.40;;;;;;4968520;28;20031;-55
2023/03/04 11:51:10;;;;;;;58.00;38.78;;;333.70;2304.00;;;;;;4968679;28;20489;-55
2023/03/04 11:53:43;;;;;;;43.83;29.02;;;358.70;2329.60;;;;;;4968366;28;20050;-54
2023/03/04 11:56:29;;;;;;;52.40;38.45;;;358.90;2278.40;;;;;;4966127;28;20046;-55
2023/03/04 11:59:13;;;;;;;45.65;28.80;;;358.70;2278.40;;;;;;4961495;28;20089;-56
2023/03/04 12:02:03;;;;;;;45.13;28.42;;;358.40;2304.00;;;;;;4963495;28;20035;-54
2023/03/04 12:04:31;;;;;;;55.53;28.67;;;333.20;2329.60;;;;;;4963225;28;20435;-57
2023/03/04 12:07:37;;;;;;;40.20;27.80;;;333.10;2329.60;;;;;;4968990;28;20022;-57
2023/03/04 12:10:19;;;;;;;48.28;31.27;;;333.20;2329.60;;;;;;4966401;28;20034;-60
2023/03/04 12:13:06;;;;;;;326.77;240.98;;;333.40;2329.60;;;;;;4961612;28;20054;-60
2023/03/04 12:15:45;;;;;;;83.63;63.90;;;333.30;2329.60;;;;;;4961142;28;20023;-59
2023/03/04 12:18:17;;;;;;;53.08;38.95;;;333.20;2329.60;;;;;;4964739;28;20081;-59
2023/03/04 12:21:05;;;;;;;64.70;34.92;;;333.40;2329.60;;;;;;4968878;28;20026;-60
2023/03/04 12:23:52;;;;;;;39.70;28.75;;;333.50;2329.60;;;;;;4969641;28;20101;-59
2023/03/04 12:26:24;;;;;;;42.85;29.30;;;333.10;2329.60;;;;;;4967857;28;20317;-60